sensor_id;sensor_type;location;lat;lon;timestamp;P1;durP1;ratioP1;P2;durP2;ratioP2
64500;SDS011;50874;24.150;-110.320;2023-09-19T00:00:42;12.07;;;3.53;;
64500;SDS011;50874;24.150;-110.320;2023-09-19T00:03:12;10.88;;;3.10;;
64500;SDS011;50874;24.150;-110.320;2023-09-19T00:05:39;4.80;;;2.65;;
64500;SDS011;50874;24.150;-110.320;2023-09-19T00:08:09;11.63;;;2.97;;
64500;SDS011;50874;24.150;-110.320;2023-09-19T00:10:38;10.32;;;3.78;;
64500;SDS011;50874;24.150;-110.320;2023-09-19T00:13:06;10.65;;;2.92;;
64500;SDS011;50874;24.150;-110.320;2023-09-19T00:15:39;11.27;;;3.28;;
64500;SDS011;50874;24.150;-110.320;2023-09-19T00:18:07;11.90;;;3.28;;
64500;SDS011;50874;24.150;-110.320;2023-09-19T00:20:37;11.02;;;3.55;;
64500;SDS011;50874;24.150;-110.320;2023-09-19T00:23:04;11.85;;;2.65;;
64500;SDS011;50874;24.150;-110.320;2023-09-19T00:25:33;7.07;;;2.60;;
64500;SDS011;50874;24.150;-110.320;2023-09-19T00:28:01;7.68;;;3.13;;
64500;SDS011;50874;24.150;-110.320;2023-09-19T00:30:27;12.73;;;3.50;;
64500;SDS011;50874;24.150;-110.320;2023-09-19T00:32:54;9.20;;;3.15;;
64500;SDS011;50874;24.150;-110.320;2023-09-19T00:35:21;8.77;;;2.75;;
64500;SDS011;50874;24.150;-110.320;2023-09-19T00:37:51;7.50;;;3.20;;
64500;SDS011;50874;24.150;-110.320;2023-09-19T00:40:17;13.13;;;3.63;;
64500;SDS011;50874;24.150;-110.320;2023-09-19T00:42:45;9.52;;;2.90;;
64500;SDS011;50874;24.150;-110.320;2023-09-19T00:45:13;10.20;;;3.13;;
64500;SDS011;50874;24.150;-110.320;2023-09-19T00:47:42;10.07;;;3.05;;
64500;SDS011;50874;24.150;-110.320;2023-09-19T00:50:16;14.93;;;3.90;;
64500;SDS011;50874;24.150;-110.320;2023-09-19T00:52:46;7.53;;;3.47;;
64500;SDS011;50874;24.150;-110.320;2023-09-19T00:55:15;10.60;;;2.90;;
64500;SDS011;50874;24.150;-110.320;2023-09-19T00:57:45;10.63;;;3.20;;
64500;SDS011;50874;24.150;-110.320;2023-09-19T01:00:12;10.90;;;3.35;;
64500;SDS011;50874;24.150;-110.320;2023-09-19T01:02:41;17.55;;;3.58;;
64500;SDS011;50874;24.150;-110.320;2023-09-19T01:05:09;8.05;;;3.17;;
64500;SDS011;50874;24.150;-110.320;2023-09-19T01:07:36;10.23;;;2.95;;
64500;SDS011;50874;24.150;-110.320;2023-09-19T01:10:13;14.23;;;3.33;;
64500;SDS011;50874;24.150;-110.320;2023-09-19T01:23:20;14.70;;;3.40;;
64500;SDS011;50874;24.150;-110.320;2023-09-19T01:26:17;18.52;;;4.50;;
64500;SDS011;50874;24.150;-110.320;2023-09-19T01:31:45;28.73;;;5.10;;
64500;SDS011;50874;24.150;-110.320;2023-09-19T01:34:12;27.38;;;4.70;;
64500;SDS011;50874;24.150;-110.320;2023-09-19T01:36:39;22.83;;;4.53;;
64500;SDS011;50874;24.150;-110.320;2023-09-19T01:39:12;18.48;;;4.47;;
64500;SDS011;50874;24.150;-110.320;2023-09-19T01:41:51;20.88;;;4.13;;
64500;SDS011;50874;24.150;-110.320;2023-09-19T01:47:23;15.68;;;4.07;;
64500;SDS011;50874;24.150;-110.320;2023-09-19T01:49:56;15.57;;;3.40;;
64500;SDS011;50874;24.150;-110.320;2023-09-19T01:52:42;14.52;;;4.18;;
64500;SDS011;50874;24.150;-110.320;2023-09-19T01:55:17;14.93;;;4.85;;
64500;SDS011;50874;24.150;-110.320;2023-09-19T02:00:26;16.33;;;4.47;;
64500;SDS011;50874;24.150;-110.320;2023-09-19T02:02:57;11.52;;;3.85;;
64500;SDS011;50874;24.150;-110.320;2023-09-19T02:05:25;13.38;;;3.60;;
64500;SDS011;50874;24.150;-110.320;2023-09-19T02:07:55;13.05;;;3.50;;
64500;SDS011;50874;24.150;-110.320;2023-09-19T02:10:24;15.25;;;4.32;;
64500;SDS011;50874;24.150;-110.320;2023-09-19T02:12:50;9.05;;;3.58;;
64500;SDS011;50874;24.150;-110.320;2023-09-19T02:15:17;24.95;;;4.05;;
64500;SDS011;50874;24.150;-110.320;2023-09-19T02:17:49;19.48;;;4.05;;
64500;SDS011;50874;24.150;-110.320;2023-09-19T02:20:16;13.95;;;3.75;;
64500;SDS011;50874;24.150;-110.320;2023-09-19T02:22:45;18.70;;;3.47;;
64500;SDS011;50874;24.150;-110.320;2023-09-19T02:25:12;11.65;;;4.28;;
64500;SDS011;50874;24.150;-110.320;2023-09-19T02:27:39;11.23;;;3.20;;
64500;SDS011;50874;24.150;-110.320;2023-09-19T02:30:05;10.35;;;3.45;;
64500;SDS011;50874;24.150;-110.320;2023-09-19T02:32:32;16.10;;;3.85;;
64500;SDS011;50874;24.150;-110.320;2023-09-19T02:35:02;20.42;;;5.63;;
64500;SDS011;50874;24.150;-110.320;2023-09-19T02:37:30;18.90;;;4.05;;
64500;SDS011;50874;24.150;-110.320;2023-09-19T02:39:58;16.98;;;4.43;;
64500;SDS011;50874;24.150;-110.320;2023-09-19T02:42:25;20.38;;;4.50;;
64500;SDS011;50874;24.150;-110.320;2023-09-19T02:44:51;15.95;;;4.00;;
64500;SDS011;50874;24.150;-110.320;2023-09-19T02:47:17;22.90;;;4.65;;
64500;SDS011;50874;24.150;-110.320;2023-09-19T02:49:44;14.93;;;3.67;;
64500;SDS011;50874;24.150;-110.320;2023-09-19T02:52:11;17.15;;;4.78;;
64500;SDS011;50874;24.150;-110.320;2023-09-19T02:54:39;17.58;;;4.47;;
64500;SDS011;50874;24.150;-110.320;2023-09-19T02:57:10;20.33;;;4.82;;
64500;SDS011;50874;24.150;-110.320;2023-09-19T02:59:37;12.35;;;3.85;;
64500;SDS011;50874;24.150;-110.320;2023-09-19T03:02:03;17.00;;;4.07;;
64500;SDS011;50874;24.150;-110.320;2023-09-19T03:04:30;15.60;;;4.22;;
64500;SDS011;50874;24.150;-110.320;2023-09-19T03:06:58;15.13;;;4.00;;
64500;SDS011;50874;24.150;-110.320;2023-09-19T03:09:26;24.83;;;4.15;;
64500;SDS011;50874;24.150;-110.320;2023-09-19T03:11:52;14.32;;;4.13;;
64500;SDS011;50874;24.150;-110.320;2023-09-19T03:14:19;15.20;;;4.22;;
64500;SDS011;50874;24.150;-110.320;2023-09-19T03:16:46;13.18;;;4.03;;
64500;SDS011;50874;24.150;-110.320;2023-09-19T03:19:12;33.05;;;5.00;;
64500;SDS011;50874;24.150;-110.320;2023-09-19T03:21:40;20.48;;;4.15;;
64500;SDS011;50874;24.150;-110.320;2023-09-19T03:24:06;19.10;;;4.47;;
64500;SDS011;50874;24.150;-110.320;2023-09-19T03:26:33;9.60;;;3.75;;
64500;SDS011;50874;24.150;-110.320;2023-09-19T03:29:03;13.65;;;4.38;;
64500;SDS011;50874;24.150;-110.320;2023-09-19T03:31:33;11.43;;;4.30;;
64500;SDS011;50874;24.150;-110.320;2023-09-19T03:34:02;15.13;;;4.10;;
64500;SDS011;50874;24.150;-110.320;2023-09-19T03:36:32;24.88;;;4.35;;
64500;SDS011;50874;24.150;-110.320;2023-09-19T03:38:58;13.57;;;3.97;;
64500;SDS011;50874;24.150;-110.320;2023-09-19T03:41:30;16.70;;;3.83;;
64500;SDS011;50874;24.150;-110.320;2023-09-19T03:43:58;12.93;;;4.03;;
64500;SDS011;50874;24.150;-110.320;2023-09-19T03:46:25;15.32;;;4.15;;
64500;SDS011;50874;24.150;-110.320;2023-09-19T03:48:52;13.95;;;3.35;;
64500;SDS011;50874;24.150;-110.320;2023-09-19T03:51:20;15.80;;;4.47;;
64500;SDS011;50874;24.150;-110.320;2023-09-19T03:53:46;26.67;;;4.65;;
64500;SDS011;50874;24.150;-110.320;2023-09-19T03:56:14;13.75;;;3.63;;
64500;SDS011;50874;24.150;-110.320;2023-09-19T03:58:41;19.40;;;5.25;;
64500;SDS011;50874;24.150;-110.320;2023-09-19T04:01:07;18.80;;;3.70;;
64500;SDS011;50874;24.150;-110.320;2023-09-19T04:03:34;11.52;;;3.33;;
64500;SDS011;50874;24.150;-110.320;2023-09-19T04:06:12;18.75;;;4.38;;
64500;SDS011;50874;24.150;-110.320;2023-09-19T04:08:42;13.13;;;4.03;;
64500;SDS011;50874;24.150;-110.320;2023-09-19T04:11:09;20.67;;;4.30;;
64500;SDS011;50874;24.150;-110.320;2023-09-19T04:13:36;12.43;;;4.18;;
64500;SDS011;50874;24.150;-110.320;2023-09-19T04:16:03;11.90;;;4.25;;
64500;SDS011;50874;24.150;-110.320;2023-09-19T04:18:29;12.95;;;4.20;;
64500;SDS011;50874;24.150;-110.320;2023-09-19T04:20:58;14.82;;;4.35;;
64500;SDS011;50874;24.150;-110.320;2023-09-19T04:23:28;14.60;;;4.60;;
64500;SDS011;50874;24.150;-110.320;2023-09-19T04:25:56;9.90;;;4.57;;
64500;SDS011;50874;24.150;-110.320;2023-09-19T04:28:23;17.98;;;4.43;;
64500;SDS011;50874;24.150;-110.320;2023-09-19T04:30:49;14.45;;;3.70;;
64500;SDS011;50874;24.150;-110.320;2023-09-19T04:33:16;19.75;;;4.80;;
64500;SDS011;50874;24.150;-110.320;2023-09-19T04:35:42;19.20;;;5.07;;
64500;SDS011;50874;24.150;-110.320;2023-09-19T04:38:09;24.10;;;4.75;;
64500;SDS011;50874;24.150;-110.320;2023-09-19T04:40:36;21.10;;;4.47;;
64500;SDS011;50874;24.150;-110.320;2023-09-19T04:43:05;17.33;;;4.82;;
64500;SDS011;50874;24.150;-110.320;2023-09-19T04:45:32;19.70;;;5.50;;
64500;SDS011;50874;24.150;-110.320;2023-09-19T04:47:59;11.75;;;4.65;;
64500;SDS011;50874;24.150;-110.320;2023-09-19T04:50:26;14.05;;;4.40;;
64500;SDS011;50874;24.150;-110.320;2023-09-19T04:52:59;15.70;;;4.50;;
64500;SDS011;50874;24.150;-110.320;2023-09-19T04:55:26;16.65;;;4.95;;
64500;SDS011;50874;24.150;-110.320;2023-09-19T04:57:52;21.73;;;4.95;;
64500;SDS011;50874;24.150;-110.320;2023-09-19T05:00:20;16.35;;;5.35;;
64500;SDS011;50874;24.150;-110.320;2023-09-19T05:02:54;15.13;;;4.93;;
64500;SDS011;50874;24.150;-110.320;2023-09-19T05:05:21;18.35;;;4.43;;
64500;SDS011;50874;24.150;-110.320;2023-09-19T05:07:49;19.80;;;5.45;;
64500;SDS011;50874;24.150;-110.320;2023-09-19T05:10:16;22.55;;;5.38;;
64500;SDS011;50874;24.150;-110.320;2023-09-19T05:12:47;16.25;;;5.13;;
64500;SDS011;50874;24.150;-110.320;2023-09-19T05:15:16;21.35;;;5.43;;
64500;SDS011;50874;24.150;-110.320;2023-09-19T05:17:49;16.92;;;5.55;;
64500;SDS011;50874;24.150;-110.320;2023-09-19T05:23:02;13.80;;;5.00;;
64500;SDS011;50874;24.150;-110.320;2023-09-19T05:25:37;17.83;;;4.85;;
64500;SDS011;50874;24.150;-110.320;2023-09-19T05:28:06;17.83;;;5.00;;
64500;SDS011;50874;24.150;-110.320;2023-09-19T05:30:32;21.25;;;5.35;;
64500;SDS011;50874;24.150;-110.320;2023-09-19T05:33:02;13.25;;;4.10;;
64500;SDS011;50874;24.150;-110.320;2023-09-19T05:35:29;20.60;;;5.07;;
64500;SDS011;50874;24.150;-110.320;2023-09-19T05:37:56;15.77;;;4.90;;
64500;SDS011;50874;24.150;-110.320;2023-09-19T05:40:24;12.43;;;4.45;;
64500;SDS011;50874;24.150;-110.320;2023-09-19T05:42:51;13.23;;;5.07;;
64500;SDS011;50874;24.150;-110.320;2023-09-19T05:45:17;16.58;;;5.28;;
64500;SDS011;50874;24.150;-110.320;2023-09-19T05:47:52;16.02;;;5.47;;
64500;SDS011;50874;24.150;-110.320;2023-09-19T05:50:29;14.05;;;5.18;;
64500;SDS011;50874;24.150;-110.320;2023-09-19T05:52:57;13.25;;;4.75;;
64500;SDS011;50874;24.150;-110.320;2023-09-19T05:55:23;25.83;;;5.53;;
64500;SDS011;50874;24.150;-110.320;2023-09-19T05:57:50;19.95;;;5.53;;
64500;SDS011;50874;24.150;-110.320;2023-09-19T06:00:21;11.80;;;4.65;;
64500;SDS011;50874;24.150;-110.320;2023-09-19T06:02:51;17.20;;;5.10;;
64500;SDS011;50874;24.150;-110.320;2023-09-19T06:07:48;15.25;;;4.90;;
64500;SDS011;50874;24.150;-110.320;2023-09-19T06:10:15;22.48;;;5.28;;
64500;SDS011;50874;24.150;-110.320;2023-09-19T06:12:43;18.92;;;5.47;;
64500;SDS011;50874;24.150;-110.320;2023-09-19T06:15:10;12.38;;;4.10;;
64500;SDS011;50874;24.150;-110.320;2023-09-19T06:17:50;13.40;;;4.85;;
64500;SDS011;50874;24.150;-110.320;2023-09-19T06:20:21;11.73;;;4.88;;
64500;SDS011;50874;24.150;-110.320;2023-09-19T06:22:49;19.15;;;5.05;;
64500;SDS011;50874;24.150;-110.320;2023-09-19T06:25:16;18.63;;;5.00;;
64500;SDS011;50874;24.150;-110.320;2023-09-19T06:27:50;17.85;;;5.25;;
64500;SDS011;50874;24.150;-110.320;2023-09-19T06:30:19;20.08;;;6.20;;
64500;SDS011;50874;24.150;-110.320;2023-09-19T06:32:46;17.05;;;5.18;;
64500;SDS011;50874;24.150;-110.320;2023-09-19T06:35:14;16.38;;;5.18;;
64500;SDS011;50874;24.150;-110.320;2023-09-19T06:37:42;18.23;;;5.45;;
64500;SDS011;50874;24.150;-110.320;2023-09-19T06:40:12;19.70;;;5.93;;
64500;SDS011;50874;24.150;-110.320;2023-09-19T06:45:12;14.10;;;4.97;;
64500;SDS011;50874;24.150;-110.320;2023-09-19T06:47:44;15.15;;;5.03;;
64500;SDS011;50874;24.150;-110.320;2023-09-19T06:50:14;16.70;;;5.55;;
64500;SDS011;50874;24.150;-110.320;2023-09-19T06:52:44;16.65;;;5.40;;
64500;SDS011;50874;24.150;-110.320;2023-09-19T06:55:18;16.30;;;5.85;;
64500;SDS011;50874;24.150;-110.320;2023-09-19T06:57:49;22.98;;;4.95;;
64500;SDS011;50874;24.150;-110.320;2023-09-19T07:00:15;16.60;;;5.35;;
64500;SDS011;50874;24.150;-110.320;2023-09-19T07:03:01;16.25;;;5.32;;
64500;SDS011;50874;24.150;-110.320;2023-09-19T07:05:46;19.15;;;5.43;;
64500;SDS011;50874;24.150;-110.320;2023-09-19T07:08:13;16.02;;;5.15;;
64500;SDS011;50874;24.150;-110.320;2023-09-19T07:10:41;12.18;;;4.30;;
64500;SDS011;50874;24.150;-110.320;2023-09-19T07:13:13;21.70;;;6.10;;
64500;SDS011;50874;24.150;-110.320;2023-09-19T07:15:43;15.07;;;4.88;;
64500;SDS011;50874;24.150;-110.320;2023-09-19T07:18:13;15.52;;;5.85;;
64500;SDS011;50874;24.150;-110.320;2023-09-19T07:20:41;18.20;;;5.95;;
64500;SDS011;50874;24.150;-110.320;2023-09-19T07:23:14;16.05;;;5.03;;
64500;SDS011;50874;24.150;-110.320;2023-09-19T07:25:46;13.35;;;5.68;;
64500;SDS011;50874;24.150;-110.320;2023-09-19T07:28:14;15.02;;;4.88;;
64500;SDS011;50874;24.150;-110.320;2023-09-19T07:30:41;15.27;;;5.63;;
64500;SDS011;50874;24.150;-110.320;2023-09-19T07:33:07;18.50;;;5.50;;
64500;SDS011;50874;24.150;-110.320;2023-09-19T07:35:37;22.55;;;6.03;;
64500;SDS011;50874;24.150;-110.320;2023-09-19T07:38:07;17.95;;;5.25;;
64500;SDS011;50874;24.150;-110.320;2023-09-19T07:40:36;18.52;;;5.07;;
64500;SDS011;50874;24.150;-110.320;2023-09-19T07:43:03;19.55;;;5.47;;
64500;SDS011;50874;24.150;-110.320;2023-09-19T07:45:30;16.42;;;5.68;;
64500;SDS011;50874;24.150;-110.320;2023-09-19T07:47:57;15.90;;;5.88;;
64500;SDS011;50874;24.150;-110.320;2023-09-19T07:50:25;19.00;;;6.35;;
64500;SDS011;50874;24.150;-110.320;2023-09-19T07:52:52;16.38;;;5.20;;
64500;SDS011;50874;24.150;-110.320;2023-09-19T07:55:18;18.33;;;5.82;;
64500;SDS011;50874;24.150;-110.320;2023-09-19T07:57:48;14.35;;;5.03;;
64500;SDS011;50874;24.150;-110.320;2023-09-19T08:00:15;23.83;;;5.72;;
64500;SDS011;50874;24.150;-110.320;2023-09-19T08:02:42;17.52;;;5.03;;
64500;SDS011;50874;24.150;-110.320;2023-09-19T08:05:09;19.35;;;6.00;;
64500;SDS011;50874;24.150;-110.320;2023-09-19T08:07:40;18.13;;;5.57;;
64500;SDS011;50874;24.150;-110.320;2023-09-19T08:10:09;14.63;;;5.75;;
64500;SDS011;50874;24.150;-110.320;2023-09-19T08:12:42;17.83;;;5.50;;
64500;SDS011;50874;24.150;-110.320;2023-09-19T08:15:15;16.77;;;5.25;;
64500;SDS011;50874;24.150;-110.320;2023-09-19T08:17:45;14.70;;;5.35;;
64500;SDS011;50874;24.150;-110.320;2023-09-19T08:20:12;16.45;;;5.50;;
64500;SDS011;50874;24.150;-110.320;2023-09-19T08:22:52;19.83;;;5.70;;
64500;SDS011;50874;24.150;-110.320;2023-09-19T08:25:22;16.38;;;5.47;;
64500;SDS011;50874;24.150;-110.320;2023-09-19T08:27:50;25.35;;;6.00;;
64500;SDS011;50874;24.150;-110.320;2023-09-19T08:30:18;18.17;;;5.70;;
64500;SDS011;50874;24.150;-110.320;2023-09-19T08:32:49;22.67;;;5.20;;
64500;SDS011;50874;24.150;-110.320;2023-09-19T08:35:16;12.85;;;5.07;;
64500;SDS011;50874;24.150;-110.320;2023-09-19T08:37:42;12.07;;;5.65;;
64500;SDS011;50874;24.150;-110.320;2023-09-19T08:40:12;22.15;;;6.70;;
64500;SDS011;50874;24.150;-110.320;2023-09-19T08:42:51;14.82;;;5.25;;
64500;SDS011;50874;24.150;-110.320;2023-09-19T08:45:19;15.73;;;5.25;;
64500;SDS011;50874;24.150;-110.320;2023-09-19T08:50:43;14.40;;;5.25;;
64500;SDS011;50874;24.150;-110.320;2023-09-19T08:53:26;20.92;;;5.80;;
64500;SDS011;50874;24.150;-110.320;2023-09-19T08:56:08;10.30;;;5.32;;
64500;SDS011;50874;24.150;-110.320;2023-09-19T09:01:34;13.45;;;5.25;;
64500;SDS011;50874;24.150;-110.320;2023-09-19T09:04:02;20.17;;;5.53;;
64500;SDS011;50874;24.150;-110.320;2023-09-19T09:06:34;18.10;;;5.43;;
64500;SDS011;50874;24.150;-110.320;2023-09-19T09:09:01;14.55;;;5.53;;
64500;SDS011;50874;24.150;-110.320;2023-09-19T09:11:28;23.08;;;5.03;;
64500;SDS011;50874;24.150;-110.320;2023-09-19T09:13:58;16.35;;;5.43;;
64500;SDS011;50874;24.150;-110.320;2023-09-19T09:16:25;15.90;;;5.88;;
64500;SDS011;50874;24.150;-110.320;2023-09-19T09:18:51;16.48;;;5.35;;
64500;SDS011;50874;24.150;-110.320;2023-09-19T09:21:20;16.25;;;5.82;;
64500;SDS011;50874;24.150;-110.320;2023-09-19T09:23:47;13.10;;;5.60;;
64500;SDS011;50874;24.150;-110.320;2023-09-19T09:26:15;19.98;;;5.70;;
64500;SDS011;50874;24.150;-110.320;2023-09-19T09:28:45;18.27;;;6.10;;
64500;SDS011;50874;24.150;-110.320;2023-09-19T09:31:24;16.52;;;5.70;;
64500;SDS011;50874;24.150;-110.320;2023-09-19T09:33:54;19.15;;;5.55;;
64500;SDS011;50874;24.150;-110.320;2023-09-19T09:36:38;12.38;;;5.10;;
64500;SDS011;50874;24.150;-110.320;2023-09-19T09:39:07;12.57;;;5.43;;
64500;SDS011;50874;24.150;-110.320;2023-09-19T09:41:50;17.35;;;5.28;;
64500;SDS011;50874;24.150;-110.320;2023-09-19T09:44:17;11.82;;;5.03;;
64500;SDS011;50874;24.150;-110.320;2023-09-19T09:46:48;24.00;;;6.32;;
64500;SDS011;50874;24.150;-110.320;2023-09-19T09:49:24;18.52;;;5.97;;
64500;SDS011;50874;24.150;-110.320;2023-09-19T09:52:05;15.68;;;5.47;;
64500;SDS011;50874;24.150;-110.320;2023-09-19T09:54:34;14.40;;;5.65;;
64500;SDS011;50874;24.150;-110.320;2023-09-19T09:57:05;19.38;;;5.38;;
64500;SDS011;50874;24.150;-110.320;2023-09-19T09:59:57;18.45;;;5.25;;
64500;SDS011;50874;24.150;-110.320;2023-09-19T10:02:41;20.63;;;5.63;;
64500;SDS011;50874;24.150;-110.320;2023-09-19T10:10:32;12.45;;;5.93;;
64500;SDS011;50874;24.150;-110.320;2023-09-19T10:13:12;19.20;;;5.63;;
64500;SDS011;50874;24.150;-110.320;2023-09-19T10:15:44;16.23;;;5.15;;
64500;SDS011;50874;24.150;-110.320;2023-09-19T10:18:18;12.85;;;5.53;;
64500;SDS011;50874;24.150;-110.320;2023-09-19T10:20:47;16.38;;;5.43;;
64500;SDS011;50874;24.150;-110.320;2023-09-19T10:23:16;15.93;;;5.45;;
64500;SDS011;50874;24.150;-110.320;2023-09-19T10:25:49;17.35;;;4.90;;
64500;SDS011;50874;24.150;-110.320;2023-09-19T10:28:16;14.88;;;5.45;;
64500;SDS011;50874;24.150;-110.320;2023-09-19T10:30:52;17.92;;;5.25;;
64500;SDS011;50874;24.150;-110.320;2023-09-19T10:33:20;16.98;;;5.05;;
64500;SDS011;50874;24.150;-110.320;2023-09-19T10:35:51;17.17;;;4.93;;
64500;SDS011;50874;24.150;-110.320;2023-09-19T10:38:26;18.80;;;5.20;;
64500;SDS011;50874;24.150;-110.320;2023-09-19T10:40:58;9.20;;;4.28;;
64500;SDS011;50874;24.150;-110.320;2023-09-19T10:43:31;15.63;;;5.57;;
64500;SDS011;50874;24.150;-110.320;2023-09-19T10:46:02;16.98;;;5.40;;
64500;SDS011;50874;24.150;-110.320;2023-09-19T10:48:36;15.00;;;5.15;;
64500;SDS011;50874;24.150;-110.320;2023-09-19T10:53:45;16.02;;;4.55;;
64500;SDS011;50874;24.150;-110.320;2023-09-19T10:56:21;12.63;;;5.35;;
64500;SDS011;50874;24.150;-110.320;2023-09-19T10:59:15;15.13;;;4.70;;
64500;SDS011;50874;24.150;-110.320;2023-09-19T11:01:53;14.90;;;4.38;;
64500;SDS011;50874;24.150;-110.320;2023-09-19T11:09:47;10.57;;;3.70;;
64500;SDS011;50874;24.150;-110.320;2023-09-19T11:16:02;10.88;;;4.53;;
64500;SDS011;50874;24.150;-110.320;2023-09-19T11:19:00;15.80;;;4.65;;
64500;SDS011;50874;24.150;-110.320;2023-09-19T11:27:14;13.43;;;4.43;;
64500;SDS011;50874;24.150;-110.320;2023-09-19T11:29:43;16.33;;;5.20;;
64500;SDS011;50874;24.150;-110.320;2023-09-19T11:32:10;10.23;;;3.85;;
64500;SDS011;50874;24.150;-110.320;2023-09-19T11:45:07;11.90;;;4.57;;
64500;SDS011;50874;24.150;-110.320;2023-09-19T11:48:14;8.88;;;3.83;;
64500;SDS011;50874;24.150;-110.320;2023-09-19T11:50:44;12.43;;;3.65;;
64500;SDS011;50874;24.150;-110.320;2023-09-19T11:53:12;10.25;;;4.13;;
64500;SDS011;50874;24.150;-110.320;2023-09-19T11:55:42;23.05;;;4.55;;
64500;SDS011;50874;24.150;-110.320;2023-09-19T11:58:09;11.20;;;3.75;;
64500;SDS011;50874;24.150;-110.320;2023-09-19T12:00:39;18.98;;;4.47;;
64500;SDS011;50874;24.150;-110.320;2023-09-19T12:03:09;18.08;;;4.95;;
64500;SDS011;50874;24.150;-110.320;2023-09-19T12:05:37;13.73;;;4.32;;
64500;SDS011;50874;24.150;-110.320;2023-09-19T12:08:04;13.90;;;4.57;;
64500;SDS011;50874;24.150;-110.320;2023-09-19T12:10:49;11.43;;;4.40;;
64500;SDS011;50874;24.150;-110.320;2023-09-19T12:13:20;13.95;;;4.40;;
64500;SDS011;50874;24.150;-110.320;2023-09-19T12:15:47;15.98;;;4.68;;
64500;SDS011;50874;24.150;-110.320;2023-09-19T12:18:26;19.73;;;4.82;;
64500;SDS011;50874;24.150;-110.320;2023-09-19T12:20:56;21.65;;;4.95;;
64500;SDS011;50874;24.150;-110.320;2023-09-19T12:23:23;19.17;;;5.43;;
64500;SDS011;50874;24.150;-110.320;2023-09-19T12:25:54;17.27;;;4.97;;
64500;SDS011;50874;24.150;-110.320;2023-09-19T12:28:23;16.65;;;4.55;;
64500;SDS011;50874;24.150;-110.320;2023-09-19T12:30:52;17.55;;;4.85;;
64500;SDS011;50874;24.150;-110.320;2023-09-19T12:33:20;13.98;;;4.63;;
64500;SDS011;50874;24.150;-110.320;2023-09-19T12:35:51;18.70;;;5.13;;
64500;SDS011;50874;24.150;-110.320;2023-09-19T12:38:26;15.50;;;4.82;;
64500;SDS011;50874;24.150;-110.320;2023-09-19T12:40:56;14.23;;;4.80;;
64500;SDS011;50874;24.150;-110.320;2023-09-19T12:43:28;17.85;;;4.55;;
64500;SDS011;50874;24.150;-110.320;2023-09-19T12:45:57;18.10;;;4.68;;
64500;SDS011;50874;24.150;-110.320;2023-09-19T12:48:25;13.73;;;4.28;;
64500;SDS011;50874;24.150;-110.320;2023-09-19T12:51:06;16.55;;;4.75;;
64500;SDS011;50874;24.150;-110.320;2023-09-19T12:53:42;13.63;;;4.25;;
64500;SDS011;50874;24.150;-110.320;2023-09-19T12:56:11;21.13;;;5.53;;
64500;SDS011;50874;24.150;-110.320;2023-09-19T12:58:52;12.75;;;5.00;;
64500;SDS011;50874;24.150;-110.320;2023-09-19T13:01:21;25.33;;;5.72;;
64500;SDS011;50874;24.150;-110.320;2023-09-19T13:04:10;15.30;;;5.50;;
64500;SDS011;50874;24.150;-110.320;2023-09-19T13:06:47;18.85;;;5.18;;
64500;SDS011;50874;24.150;-110.320;2023-09-19T13:09:16;12.63;;;4.22;;
64500;SDS011;50874;24.150;-110.320;2023-09-19T13:11:43;21.63;;;5.22;;
64500;SDS011;50874;24.150;-110.320;2023-09-19T13:14:14;39.53;;;8.90;;
64500;SDS011;50874;24.150;-110.320;2023-09-19T13:19:37;17.67;;;6.03;;
64500;SDS011;50874;24.150;-110.320;2023-09-19T13:25:14;19.80;;;6.25;;
64500;SDS011;50874;24.150;-110.320;2023-09-19T13:27:51;46.35;;;8.55;;
64500;SDS011;50874;24.150;-110.320;2023-09-19T13:30:27;20.55;;;5.47;;
64500;SDS011;50874;24.150;-110.320;2023-09-19T13:33:09;29.77;;;6.88;;
64500;SDS011;50874;24.150;-110.320;2023-09-19T13:35:38;27.27;;;6.88;;
64500;SDS011;50874;24.150;-110.320;2023-09-19T13:38:06;47.55;;;8.35;;
64500;SDS011;50874;24.150;-110.320;2023-09-19T13:40:36;45.17;;;7.85;;
64500;SDS011;50874;24.150;-110.320;2023-09-19T13:43:04;91.10;;;12.65;;
64500;SDS011;50874;24.150;-110.320;2023-09-19T13:45:32;91.55;;;11.50;;
64500;SDS011;50874;24.150;-110.320;2023-09-19T13:47:59;119.35;;;14.90;;
64500;SDS011;50874;24.150;-110.320;2023-09-19T13:50:25;137.13;;;16.52;;
64500;SDS011;50874;24.150;-110.320;2023-09-19T13:52:54;315.23;;;33.97;;
64500;SDS011;50874;24.150;-110.320;2023-09-19T13:55:21;134.43;;;16.65;;
64500;SDS011;50874;24.150;-110.320;2023-09-19T13:57:47;223.57;;;23.73;;
64500;SDS011;50874;24.150;-110.320;2023-09-19T14:00:24;290.15;;;29.88;;
64500;SDS011;50874;24.150;-110.320;2023-09-19T14:02:50;154.73;;;19.50;;
64500;SDS011;50874;24.150;-110.320;2023-09-19T14:05:17;97.43;;;15.48;;
64500;SDS011;50874;24.150;-110.320;2023-09-19T14:07:44;88.88;;;13.18;;
64500;SDS011;50874;24.150;-110.320;2023-09-19T14:10:11;45.40;;;8.63;;
64500;SDS011;50874;24.150;-110.320;2023-09-19T14:12:38;19.38;;;5.18;;
64500;SDS011;50874;24.150;-110.320;2023-09-19T14:15:08;31.42;;;6.03;;
64500;SDS011;50874;24.150;-110.320;2023-09-19T14:17:35;21.67;;;4.95;;
64500;SDS011;50874;24.150;-110.320;2023-09-19T14:20:03;12.23;;;4.53;;
64500;SDS011;50874;24.150;-110.320;2023-09-19T14:22:32;18.00;;;4.82;;
64500;SDS011;50874;24.150;-110.320;2023-09-19T14:24:58;24.60;;;5.50;;
64500;SDS011;50874;24.150;-110.320;2023-09-19T14:27:25;34.38;;;5.47;;
64500;SDS011;50874;24.150;-110.320;2023-09-19T14:29:51;18.77;;;4.40;;
64500;SDS011;50874;24.150;-110.320;2023-09-19T14:32:18;18.77;;;5.47;;
64500;SDS011;50874;24.150;-110.320;2023-09-19T14:34:44;20.23;;;4.20;;
64500;SDS011;50874;24.150;-110.320;2023-09-19T14:37:11;10.98;;;3.63;;
64500;SDS011;50874;24.150;-110.320;2023-09-19T14:39:38;15.20;;;4.57;;
64500;SDS011;50874;24.150;-110.320;2023-09-19T14:42:10;12.00;;;4.28;;
64500;SDS011;50874;24.150;-110.320;2023-09-19T14:44:37;11.98;;;3.88;;
64500;SDS011;50874;24.150;-110.320;2023-09-19T14:47:03;12.73;;;4.22;;
64500;SDS011;50874;24.150;-110.320;2023-09-19T14:49:33;17.77;;;4.35;;
64500;SDS011;50874;24.150;-110.320;2023-09-19T14:52:00;15.10;;;4.35;;
64500;SDS011;50874;24.150;-110.320;2023-09-19T14:54:29;15.98;;;3.85;;
64500;SDS011;50874;24.150;-110.320;2023-09-19T14:56:56;22.05;;;4.85;;
64500;SDS011;50874;24.150;-110.320;2023-09-19T14:59:31;11.32;;;3.60;;
64500;SDS011;50874;24.150;-110.320;2023-09-19T15:01:59;14.00;;;3.58;;
64500;SDS011;50874;24.150;-110.320;2023-09-19T15:04:27;14.13;;;3.65;;
64500;SDS011;50874;24.150;-110.320;2023-09-19T15:06:53;17.55;;;3.67;;
64500;SDS011;50874;24.150;-110.320;2023-09-19T15:09:23;15.20;;;3.70;;
64500;SDS011;50874;24.150;-110.320;2023-09-19T15:11:54;11.85;;;3.80;;
64500;SDS011;50874;24.150;-110.320;2023-09-19T15:14:21;25.83;;;4.75;;
64500;SDS011;50874;24.150;-110.320;2023-09-19T15:16:50;18.70;;;4.15;;
64500;SDS011;50874;24.150;-110.320;2023-09-19T15:19:17;8.00;;;2.83;;
64500;SDS011;50874;24.150;-110.320;2023-09-19T15:21:44;12.02;;;3.20;;
64500;SDS011;50874;24.150;-110.320;2023-09-19T15:24:10;12.02;;;2.97;;